sensor_id;sensor_type;location;lat;lon;timestamp;pressure;altitude;pressure_sealevel;temperature;humidity
61697;BME280;47610;52.252;20.922;2023-08-24T00:01:05;100442.20;;;21.10;100.00
61697;BME280;47610;52.252;20.922;2023-08-24T00:06:08;100440.34;;;21.04;100.00
61697;BME280;47610;52.252;20.922;2023-08-24T00:11:11;100441.33;;;20.98;100.00
61697;BME280;47610;52.252;20.922;2023-08-24T00:16:14;100442.37;;;20.92;100.00
61697;BME280;47610;52.252;20.922;2023-08-24T00:21:18;100442.13;;;20.86;100.00
61697;BME280;47610;52.252;20.922;2023-08-24T00:26:21;100441.86;;;20.79;100.00
61697;BME280;47610;52.252;20.922;2023-08-24T00:31:24;100437.85;;;20.72;100.00
61697;BME280;47610;52.252;20.922;2023-08-24T00:36:27;100434.56;;;20.64;100.00
61697;BME280;47610;52.252;20.922;2023-08-24T00:41:30;100435.72;;;20.59;100.00
61697;BME280;47610;52.252;20.922;2023-08-24T00:46:33;100431.35;;;20.54;100.00
61697;BME280;47610;52.252;20.922;2023-08-24T00:51:37;100429.13;;;20.46;100.00
61697;BME280;47610;52.252;20.922;2023-08-24T00:56:41;100430.67;;;20.42;100.00
61697;BME280;47610;52.252;20.922;2023-08-24T01:01:46;100429.62;;;20.38;100.00
61697;BME280;47610;52.252;20.922;2023-08-24T01:06:51;100430.96;;;20.34;100.00
61697;BME280;47610;52.252;20.922;2023-08-24T01:12:02;100433.06;;;20.30;100.00
61697;BME280;47610;52.252;20.922;2023-08-24T01:17:10;100427.52;;;20.29;100.00
61697;BME280;47610;52.252;20.922;2023-08-24T01:22:28;100425.80;;;20.29;100.00
61697;BME280;47610;52.252;20.922;2023-08-24T01:27:36;100425.02;;;20.27;100.00
61697;BME280;47610;52.252;20.922;2023-08-24T01:32:43;100423.06;;;20.24;100.00
61697;BME280;47610;52.252;20.922;2023-08-24T01:37:47;100420.89;;;20.23;100.00
61697;BME280;47610;52.252;20.922;2023-08-24T01:42:51;100419.55;;;20.23;100.00
61697;BME280;47610;52.252;20.922;2023-08-24T01:47:56;100421.84;;;20.23;100.00
61697;BME280;47610;52.252;20.922;2023-08-24T01:53:02;100416.09;;;20.21;100.00
61697;BME280;47610;52.252;20.922;2023-08-24T01:58:06;100416.86;;;20.18;100.00
61697;BME280;47610;52.252;20.922;2023-08-24T02:03:10;100409.71;;;20.12;100.00
61697;BME280;47610;52.252;20.922;2023-08-24T02:08:12;100407.67;;;20.08;100.00
61697;BME280;47610;52.252;20.922;2023-08-24T02:13:15;100410.63;;;20.02;100.00
61697;BME280;47610;52.252;20.922;2023-08-24T02:18:18;100407.26;;;19.95;100.00
61697;BME280;47610;52.252;20.922;2023-08-24T02:23:21;100407.52;;;19.90;100.00
61697;BME280;47610;52.252;20.922;2023-08-24T02:28:24;100405.75;;;19.83;100.00
61697;BME280;47610;52.252;20.922;2023-08-24T02:33:27;100407.40;;;19.76;100.00
61697;BME280;47610;52.252;20.922;2023-08-24T02:38:31;100407.25;;;19.75;100.00
61697;BME280;47610;52.252;20.922;2023-08-24T02:43:33;100409.30;;;19.72;100.00
61697;BME280;47610;52.252;20.922;2023-08-24T02:48:38;100405.83;;;19.71;100.00
61697;BME280;47610;52.252;20.922;2023-08-24T02:53:41;100406.29;;;19.67;100.00
61697;BME280;47610;52.252;20.922;2023-08-24T02:58:45;100416.42;;;19.66;100.00
61697;BME280;47610;52.252;20.922;2023-08-24T03:03:48;100417.85;;;19.65;100.00
61697;BME280;47610;52.252;20.922;2023-08-24T03:08:52;100418.10;;;19.64;100.00
61697;BME280;47610;52.252;20.922;2023-08-24T03:13:55;100414.45;;;19.62;100.00
61697;BME280;47610;52.252;20.922;2023-08-24T03:18:59;100416.29;;;19.61;100.00
61697;BME280;47610;52.252;20.922;2023-08-24T03:24:02;100411.64;;;19.60;100.00
61697;BME280;47610;52.252;20.922;2023-08-24T03:29:06;100408.22;;;19.58;100.00
61697;BME280;47610;52.252;20.922;2023-08-24T03:34:09;100403.98;;;19.56;100.00
61697;BME280;47610;52.252;20.922;2023-08-24T03:39:13;100399.17;;;19.54;100.00
61697;BME280;47610;52.252;20.922;2023-08-24T03:44:16;100398.77;;;19.51;100.00
61697;BME280;47610;52.252;20.922;2023-08-24T03:49:20;100398.70;;;19.53;100.00
61697;BME280;47610;52.252;20.922;2023-08-24T03:54:24;100400.84;;;19.55;100.00
61697;BME280;47610;52.252;20.922;2023-08-24T03:59:27;100403.13;;;19.59;100.00
61697;BME280;47610;52.252;20.922;2023-08-24T04:04:31;100405.21;;;19.63;100.00
61697;BME280;47610;52.252;20.922;2023-08-24T04:09:34;100409.65;;;19.69;100.00
61697;BME280;47610;52.252;20.922;2023-08-24T04:14:37;100412.07;;;19.76;100.00
61697;BME280;47610;52.252;20.922;2023-08-24T04:19:40;100418.95;;;19.82;100.00
61697;BME280;47610;52.252;20.922;2023-08-24T04:24:43;100422.77;;;19.88;100.00
61697;BME280;47610;52.252;20.922;2023-08-24T04:29:47;100417.16;;;19.93;100.00
61697;BME280;47610;52.252;20.922;2023-08-24T04:34:50;100412.48;;;20.02;100.00
61697;BME280;47610;52.252;20.922;2023-08-24T04:39:54;100409.48;;;20.15;100.00
61697;BME280;47610;52.252;20.922;2023-08-24T04:44:57;100410.59;;;20.31;100.00
61697;BME280;47610;52.252;20.922;2023-08-24T04:50:02;100415.55;;;21.92;100.00
61697;BME280;47610;52.252;20.922;2023-08-24T04:55:09;100420.07;;;25.32;99.82
61697;BME280;47610;52.252;20.922;2023-08-24T05:00:19;100429.02;;;28.29;86.61
61697;BME280;47610;52.252;20.922;2023-08-24T05:05:25;100431.13;;;30.29;70.41
61697;BME280;47610;52.252;20.922;2023-08-24T05:10:33;100428.46;;;30.35;62.95
61697;BME280;47610;52.252;20.922;2023-08-24T05:15:36;100431.38;;;29.39;59.71
61697;BME280;47610;52.252;20.922;2023-08-24T05:20:39;100434.65;;;28.13;61.28
61697;BME280;47610;52.252;20.922;2023-08-24T05:25:43;100429.23;;;26.99;63.36
61697;BME280;47610;52.252;20.922;2023-08-24T05:30:47;100429.77;;;25.97;67.71
61697;BME280;47610;52.252;20.922;2023-08-24T05:35:52;100427.40;;;25.25;71.24
61697;BME280;47610;52.252;20.922;2023-08-24T05:40:55;100426.64;;;24.78;75.25
61697;BME280;47610;52.252;20.922;2023-08-24T05:45:58;100427.77;;;24.47;77.79
61697;BME280;47610;52.252;20.922;2023-08-24T05:51:01;100437.79;;;24.22;79.72
61697;BME280;47610;52.252;20.922;2023-08-24T05:56:06;100442.15;;;24.02;81.79
61697;BME280;47610;52.252;20.922;2023-08-24T06:01:11;100442.30;;;23.88;83.78
61697;BME280;47610;52.252;20.922;2023-08-24T06:06:14;100441.46;;;23.74;86.17
61697;BME280;47610;52.252;20.922;2023-08-24T06:11:19;100443.68;;;23.63;88.16
61697;BME280;47610;52.252;20.922;2023-08-24T06:16:22;100434.75;;;23.57;90.50
61697;BME280;47610;52.252;20.922;2023-08-24T06:21:26;100440.81;;;23.52;91.59
61697;BME280;47610;52.252;20.922;2023-08-24T06:26:28;100436.95;;;23.52;92.96
61697;BME280;47610;52.252;20.922;2023-08-24T06:31:31;100432.05;;;23.55;93.51
61697;BME280;47610;52.252;20.922;2023-08-24T06:36:35;100432.53;;;23.58;94.29
61697;BME280;47610;52.252;20.922;2023-08-24T06:41:39;100433.33;;;23.55;96.05
61697;BME280;47610;52.252;20.922;2023-08-24T06:46:43;100435.64;;;23.63;95.78
61697;BME280;47610;52.252;20.922;2023-08-24T06:51:46;100432.84;;;23.76;95.19
61697;BME280;47610;52.252;20.922;2023-08-24T06:56:49;100432.93;;;23.82;94.78
61697;BME280;47610;52.252;20.922;2023-08-24T07:01:52;100438.40;;;23.96;94.65
61697;BME280;47610;52.252;20.922;2023-08-24T07:06:55;100436.65;;;24.18;94.36
61697;BME280;47610;52.252;20.922;2023-08-24T07:11:59;100442.14;;;24.29;92.31
61697;BME280;47610;52.252;20.922;2023-08-24T07:17:02;100446.11;;;24.38;92.32
61697;BME280;47610;52.252;20.922;2023-08-24T07:22:06;100446.08;;;24.50;92.62
61697;BME280;47610;52.252;20.922;2023-08-24T07:27:10;100449.47;;;24.59;90.86
61697;BME280;47610;52.252;20.922;2023-08-24T07:32:14;100449.40;;;24.82;91.29
61697;BME280;47610;52.252;20.922;2023-08-24T07:37:19;100447.56;;;25.35;88.63
61697;BME280;47610;52.252;20.922;2023-08-24T07:42:22;100446.84;;;26.01;84.12
61697;BME280;47610;52.252;20.922;2023-08-24T07:47:26;100446.69;;;26.39;81.67
61697;BME280;47610;52.252;20.922;2023-08-24T07:52:30;100445.86;;;26.78;79.32
61697;BME280;47610;52.252;20.922;2023-08-24T07:57:33;100444.58;;;26.92;77.07
61697;BME280;47610;52.252;20.922;2023-08-24T08:02:36;100441.09;;;26.84;75.84
61697;BME280;47610;52.252;20.922;2023-08-24T08:07:40;100446.44;;;26.67;76.18
61697;BME280;47610;52.252;20.922;2023-08-24T08:12:43;100442.25;;;26.56;75.48
61697;BME280;47610;52.252;20.922;2023-08-24T08:17:48;100436.23;;;26.51;75.24
61697;BME280;47610;52.252;20.922;2023-08-24T08:22:51;100438.64;;;26.56;76.27
61697;BME280;47610;52.252;20.922;2023-08-24T08:27:55;100442.98;;;26.94;74.40
61697;BME280;47610;52.252;20.922;2023-08-24T08:32:58;100447.00;;;27.52;71.06
61697;BME280;47610;52.252;20.922;2023-08-24T08:38:03;100446.13;;;28.10;67.44
61697;BME280;47610;52.252;20.922;2023-08-24T08:43:08;100447.02;;;29.47;63.61
61697;BME280;47610;52.252;20.922;2023-08-24T08:48:13;100444.70;;;30.24;57.35
61697;BME280;47610;52.252;20.922;2023-08-24T08:53:16;100441.95;;;30.17;57.23
61697;BME280;47610;52.252;20.922;2023-08-24T08:58:22;100444.17;;;30.39;55.52
61697;BME280;47610;52.252;20.922;2023-08-24T09:03:27;100449.86;;;32.66;49.63
61697;BME280;47610;52.252;20.922;2023-08-24T09:08:33;100448.05;;;34.73;41.85
61697;BME280;47610;52.252;20.922;2023-08-24T09:13:37;100448.12;;;35.76;38.41
61697;BME280;47610;52.252;20.922;2023-08-24T09:18:46;100447.01;;;36.13;35.68
61697;BME280;47610;52.252;20.922;2023-08-24T09:23:56;100444.09;;;35.09;35.17
61697;BME280;47610;52.252;20.922;2023-08-24T09:29:05;100440.94;;;34.78;36.14
61697;BME280;47610;52.252;20.922;2023-08-24T09:34:14;100434.81;;;34.79;36.03
61697;BME280;47610;52.252;20.922;2023-08-24T09:39:18;100433.00;;;34.33;36.61
61697;BME280;47610;52.252;20.922;2023-08-24T09:44:24;100429.27;;;33.13;37.37
61697;BME280;47610;52.252;20.922;2023-08-24T09:49:29;100431.60;;;32.14;39.52
61697;BME280;47610;52.252;20.922;2023-08-24T09:54:35;100429.20;;;31.37;41.62
61697;BME280;47610;52.252;20.922;2023-08-24T09:59:41;100422.41;;;30.74;45.03
61697;BME280;47610;52.252;20.922;2023-08-24T10:04:48;100424.33;;;30.57;46.09
61697;BME280;47610;52.252;20.922;2023-08-24T10:10:00;100423.59;;;30.38;46.57
61697;BME280;47610;52.252;20.922;2023-08-24T10:15:09;100424.48;;;30.41;45.87
61697;BME280;47610;52.252;20.922;2023-08-24T10:20:14;100422.40;;;30.21;46.82
61697;BME280;47610;52.252;20.922;2023-08-24T10:25:19;100418.02;;;30.15;47.35
61697;BME280;47610;52.252;20.922;2023-08-24T10:30:26;100410.42;;;30.07;48.88
61697;BME280;47610;52.252;20.922;2023-08-24T10:35:30;100409.75;;;30.15;47.76
61697;BME280;47610;52.252;20.922;2023-08-24T10:40:36;100410.71;;;30.18;48.82
61697;BME280;47610;52.252;20.922;2023-08-24T10:45:57;100407.48;;;30.13;48.56
61697;BME280;47610;52.252;20.922;2023-08-24T10:51:19;100397.41;;;30.19;49.53
61697;BME280;47610;52.252;20.922;2023-08-24T10:56:34;100400.08;;;30.55;48.60
61697;BME280;47610;52.252;20.922;2023-08-24T11:01:54;100395.86;;;30.73;47.67
61697;BME280;47610;52.252;20.922;2023-08-24T11:06:59;100395.14;;;30.72;46.31
61697;BME280;47610;52.252;20.922;2023-08-24T11:12:06;100386.40;;;30.48;47.42
61697;BME280;47610;52.252;20.922;2023-08-24T11:17:21;100384.91;;;30.30;48.33
61697;BME280;47610;52.252;20.922;2023-08-24T11:22:26;100382.09;;;30.46;47.58
61697;BME280;47610;52.252;20.922;2023-08-24T11:27:34;100381.23;;;30.75;46.53
61697;BME280;47610;52.252;20.922;2023-08-24T11:32:38;100379.53;;;30.76;45.52
61697;BME280;47610;52.252;20.922;2023-08-24T11:37:39;100375.73;;;30.52;46.72
61697;BME280;47610;52.252;20.922;2023-08-24T11:42:42;100371.68;;;30.34;49.02
61697;BME280;47610;52.252;20.922;2023-08-24T11:47:44;100361.41;;;30.20;47.66
61697;BME280;47610;52.252;20.922;2023-08-24T11:52:45;100359.88;;;30.12;45.57
61697;BME280;47610;52.252;20.922;2023-08-24T11:57:48;100353.61;;;30.21;44.96
61697;BME280;47610;52.252;20.922;2023-08-24T12:02:49;100353.85;;;30.19;46.90
61697;BME280;47610;52.252;20.922;2023-08-24T12:07:55;100352.60;;;30.34;48.10
61697;BME280;47610;52.252;20.922;2023-08-24T12:13:02;100349.36;;;30.36;46.26
61697;BME280;47610;52.252;20.922;2023-08-24T12:18:09;100342.19;;;30.16;46.47
61697;BME280;47610;52.252;20.922;2023-08-24T12:23:11;100333.80;;;30.31;47.58
61697;BME280;47610;52.252;20.922;2023-08-24T12:28:13;100323.40;;;30.37;46.92
61697;BME280;47610;52.252;20.922;2023-08-24T12:33:24;100323.30;;;30.14;47.08
61697;BME280;47610;52.252;20.922;2023-08-24T12:38:26;100320.30;;;29.83;49.55
61697;BME280;47610;52.252;20.922;2023-08-24T12:43:28;100321.08;;;29.69;52.39
61697;BME280;47610;52.252;20.922;2023-08-24T12:48:32;100318.48;;;29.70;52.09
61697;BME280;47610;52.252;20.922;2023-08-24T12:53:33;100315.39;;;29.70;52.54
61697;BME280;47610;52.252;20.922;2023-08-24T12:58:35;100315.95;;;29.63;51.26
61697;BME280;47610;52.252;20.922;2023-08-24T13:03:37;100314.98;;;29.64;51.95
61697;BME280;47610;52.252;20.922;2023-08-24T13:08:43;100318.64;;;29.48;52.68
61697;BME280;47610;52.252;20.922;2023-08-24T13:13:45;100308.20;;;29.16;54.04
61697;BME280;47610;52.252;20.922;2023-08-24T13:18:47;100300.96;;;29.05;55.10
61697;BME280;47610;52.252;20.922;2023-08-24T13:23:49;100292.29;;;28.91;55.45
61697;BME280;47610;52.252;20.922;2023-08-24T13:28:52;100292.11;;;28.84;56.03
61697;BME280;47610;52.252;20.922;2023-08-24T13:33:54;100287.08;;;28.76;55.23
61697;BME280;47610;52.252;20.922;2023-08-24T13:38:56;100284.94;;;28.59;55.97
61697;BME280;47610;52.252;20.922;2023-08-24T13:43:57;100278.02;;;28.46;55.90
61697;BME280;47610;52.252;20.922;2023-08-24T13:48:59;100272.81;;;28.39;55.51
61697;BME280;47610;52.252;20.922;2023-08-24T13:54:01;100267.44;;;28.45;56.67
61697;BME280;47610;52.252;20.922;2023-08-24T13:59:02;100263.42;;;28.50;55.94
61697;BME280;47610;52.252;20.922;2023-08-24T14:04:05;100261.70;;;28.50;56.68
61697;BME280;47610;52.252;20.922;2023-08-24T14:09:06;100259.62;;;28.53;56.94
61697;BME280;47610;52.252;20.922;2023-08-24T14:14:09;100254.58;;;28.45;57.51
61697;BME280;47610;52.252;20.922;2023-08-24T14:19:11;100259.04;;;28.49;57.77
61697;BME280;47610;52.252;20.922;2023-08-24T14:24:12;100261.04;;;28.42;58.47
61697;BME280;47610;52.252;20.922;2023-08-24T14:29:14;100261.25;;;28.38;56.37
61697;BME280;47610;52.252;20.922;2023-08-24T14:34:16;100266.45;;;28.43;53.38
61697;BME280;47610;52.252;20.922;2023-08-24T14:39:19;100266.60;;;28.44;52.64
61697;BME280;47610;52.252;20.922;2023-08-24T14:44:21;100260.66;;;28.51;52.85
61697;BME280;47610;52.252;20.922;2023-08-24T14:49:23;100263.70;;;28.45;53.89
61697;BME280;47610;52.252;20.922;2023-08-24T14:54:24;100262.84;;;28.28;55.91
61697;BME280;47610;52.252;20.922;2023-08-24T14:59:26;100260.54;;;28.20;56.44
61697;BME280;47610;52.252;20.922;2023-08-24T15:04:27;100251.95;;;28.12;57.33
61697;BME280;47610;52.252;20.922;2023-08-24T15:09:30;100253.48;;;28.13;56.98
61697;BME280;47610;52.252;20.922;2023-08-24T15:14:32;100251.21;;;28.11;56.08
61697;BME280;47610;52.252;20.922;2023-08-24T15:19:33;100245.55;;;28.09;54.91
61697;BME280;47610;52.252;20.922;2023-08-24T15:24:35;100245.80;;;28.09;53.68
61697;BME280;47610;52.252;20.922;2023-08-24T15:29:36;100246.13;;;28.12;52.80
61697;BME280;47610;52.252;20.922;2023-08-24T15:34:38;100238.18;;;28.08;53.27
61697;BME280;47610;52.252;20.922;2023-08-24T15:39:40;100245.06;;;28.09;52.84
61697;BME280;47610;52.252;20.922;2023-08-24T15:44:41;100235.36;;;28.10;53.16
61697;BME280;47610;52.252;20.922;2023-08-24T15:49:43;100230.69;;;27.92;53.39
61697;BME280;47610;52.252;20.922;2023-08-24T15:54:45;100226.83;;;27.69;52.61
61697;BME280;47610;52.252;20.922;2023-08-24T15:59:46;100216.92;;;27.56;52.91
61697;BME280;47610;52.252;20.922;2023-08-24T16:04:48;100226.92;;;27.42;53.89
61697;BME280;47610;52.252;20.922;2023-08-24T16:09:49;100220.14;;;27.41;54.27
61697;BME280;47610;52.252;20.922;2023-08-24T16:14:51;100222.94;;;27.26;54.65
61697;BME280;47610;52.252;20.922;2023-08-24T16:19:53;100214.73;;;27.11;53.65
61697;BME280;47610;52.252;20.922;2023-08-24T16:24:54;100211.02;;;27.09;53.59
61697;BME280;47610;52.252;20.922;2023-08-24T16:29:56;100206.82;;;26.98;53.88
61697;BME280;47610;52.252;20.922;2023-08-24T16:34:58;100208.23;;;26.76;53.52
61697;BME280;47610;52.252;20.922;2023-08-24T16:39:59;100201.17;;;26.62;53.39
61697;BME280;47610;52.252;20.922;2023-08-24T16:45:01;100199.55;;;26.46;54.45
61697;BME280;47610;52.252;20.922;2023-08-24T16:50:04;100206.94;;;26.20;55.97
61697;BME280;47610;52.252;20.922;2023-08-24T16:55:07;100211.11;;;25.98;56.92
61697;BME280;47610;52.252;20.922;2023-08-24T17:00:09;100197.83;;;25.81;57.91
61697;BME280;47610;52.252;20.922;2023-08-24T17:05:11;100190.81;;;25.67;59.11
61697;BME280;47610;52.252;20.922;2023-08-24T17:10:13;100198.92;;;25.66;59.07
61697;BME280;47610;52.252;20.922;2023-08-24T17:15:15;100207.11;;;25.65;59.24
61697;BME280;47610;52.252;20.922;2023-08-24T17:20:16;100216.88;;;25.60;59.59
61697;BME280;47610;52.252;20.922;2023-08-24T17:25:18;100209.92;;;25.57;60.29
61697;BME280;47610;52.252;20.922;2023-08-24T17:30:20;100199.36;;;25.51;60.37
61697;BME280;47610;52.252;20.922;2023-08-24T17:35:21;100196.96;;;25.34;61.44
61697;BME280;47610;52.252;20.922;2023-08-24T17:40:23;100198.90;;;25.19;62.15
61697;BME280;47610;52.252;20.922;2023-08-24T17:45:25;100197.90;;;25.07;63.15
61697;BME280;47610;52.252;20.922;2023-08-24T17:50:26;100193.90;;;25.03;63.81
61697;BME280;47610;52.252;20.922;2023-08-24T17:55:28;100187.07;;;24.83;65.20
61697;BME280;47610;52.252;20.922;2023-08-24T18:00:30;100200.56;;;24.64;67.54
61697;BME280;47610;52.252;20.922;2023-08-24T18:05:32;100207.45;;;24.45;69.35
61697;BME280;47610;52.252;20.922;2023-08-24T18:10:34;100215.06;;;24.26;71.53
61697;BME280;47610;52.252;20.922;2023-08-24T18:15:36;100229.23;;;24.20;73.39
61697;BME280;47610;52.252;20.922;2023-08-24T18:20:38;100232.84;;;24.53;73.86
61697;BME280;47610;52.252;20.922;2023-08-24T18:25:40;100243.84;;;25.27;72.37
61697;BME280;47610;52.252;20.922;2023-08-24T18:30:41;100251.71;;;25.75;70.05
61697;BME280;47610;52.252;20.922;2023-08-24T18:35:43;100253.90;;;25.53;69.77
61697;BME280;47610;52.252;20.922;2023-08-24T18:40:45;100254.79;;;25.42;72.12
61697;BME280;47610;52.252;20.922;2023-08-24T18:45:53;100252.33;;;25.09;74.44
61697;BME280;47610;52.252;20.922;2023-08-24T18:50:55;100250.88;;;24.55;76.88
61697;BME280;47610;52.252;20.922;2023-08-24T18:55:57;100239.51;;;24.11;80.06
61697;BME280;47610;52.252;20.922;2023-08-24T19:01:01;100245.58;;;23.90;83.33
61697;BME280;47610;52.252;20.922;2023-08-24T19:06:03;100238.60;;;23.68;86.27
61697;BME280;47610;52.252;20.922;2023-08-24T19:11:05;100240.19;;;23.54;88.77
61697;BME280;47610;52.252;20.922;2023-08-24T19:16:07;100248.58;;;23.55;90.83
61697;BME280;47610;52.252;20.922;2023-08-24T19:21:08;100246.03;;;23.64;92.11
61697;BME280;47610;52.252;20.922;2023-08-24T19:26:10;100244.73;;;23.61;91.95
61697;BME280;47610;52.252;20.922;2023-08-24T19:31:12;100239.33;;;23.24;93.73
61697;BME280;47610;52.252;20.922;2023-08-24T19:36:14;100236.78;;;22.89;96.86
61697;BME280;47610;52.252;20.922;2023-08-24T19:41:15;100234.57;;;22.81;98.46
61697;BME280;47610;52.252;20.922;2023-08-24T19:46:17;100236.64;;;22.68;99.63
61697;BME280;47610;52.252;20.922;2023-08-24T19:51:19;100239.48;;;22.76;100.00
61697;BME280;47610;52.252;20.922;2023-08-24T19:56:20;100235.43;;;22.90;100.00
61697;BME280;47610;52.252;20.922;2023-08-24T20:01:22;100237.09;;;22.71;100.00
61697;BME280;47610;52.252;20.922;2023-08-24T20:06:24;100240.14;;;22.49;100.00
61697;BME280;47610;52.252;20.922;2023-08-24T20:11:25;100239.02;;;22.73;100.00
61697;BME280;47610;52.252;20.922;2023-08-24T20:16:27;100229.36;;;23.20;100.00
61697;BME280;47610;52.252;20.922;2023-08-24T20:21:29;100226.54;;;23.40;100.00
61697;BME280;47610;52.252;20.922;2023-08-24T20:26:30;100227.11;;;23.16;100.00
61697;BME280;47610;52.252;20.922;2023-08-24T20:31:32;100228.47;;;22.78;100.00
61697;BME280;47610;52.252;20.922;2023-08-24T20:36:34;100229.09;;;22.49;100.00
61697;BME280;47610;52.252;20.922;2023-08-24T20:41:35;100229.90;;;22.37;100.00
61697;BME280;47610;52.252;20.922;2023-08-24T20:46:37;100230.48;;;22.63;100.00
61697;BME280;47610;52.252;20.922;2023-08-24T20:51:38;100226.73;;;22.92;100.00
61697;BME280;47610;52.252;20.922;2023-08-24T20:56:40;100216.34;;;22.59;100.00
61697;BME280;47610;52.252;20.922;2023-08-24T21:01:42;100208.05;;;22.15;100.00
61697;BME280;47610;52.252;20.922;2023-08-24T21:06:44;100204.16;;;21.83;100.00
61697;BME280;47610;52.252;20.922;2023-08-24T21:11:46;100207.21;;;21.61;100.00
61697;BME280;47610;52.252;20.922;2023-08-24T21:16:48;100203.30;;;21.43;100.00
61697;BME280;47610;52.252;20.922;2023-08-24T21:21:49;100207.74;;;21.25;100.00
61697;BME280;47610;52.252;20.922;2023-08-24T21:26:51;100201.42;;;21.07;100.00
61697;BME280;47610;52.252;20.922;2023-08-24T21:31:52;100200.74;;;20.93;100.00
61697;BME280;47610;52.252;20.922;2023-08-24T21:36:54;100192.48;;;20.94;100.00
61697;BME280;47610;52.252;20.922;2023-08-24T21:41:56;100195.13;;;21.00;100.00
61697;BME280;47610;52.252;20.922;2023-08-24T21:46:57;100194.44;;;21.06;100.00
61697;BME280;47610;52.252;20.922;2023-08-24T21:51:59;100193.55;;;21.18;100.00
61697;BME280;47610;52.252;20.922;2023-08-24T21:57:00;100196.85;;;21.27;100.00
61697;BME280;47610;52.252;20.922;2023-08-24T22:02:02;100193.13;;;21.33;100.00
61697;BME280;47610;52.252;20.922;2023-08-24T22:07:04;100188.89;;;21.38;100.00
61697;BME280;47610;52.252;20.922;2023-08-24T22:12:06;100200.37;;;21.39;100.00
61697;BME280;47610;52.252;20.922;2023-08-24T22:17:07;100188.91;;;21.36;100.00
61697;BME280;47610;52.252;20.922;2023-08-24T22:22:09;100184.02;;;21.15;100.00
61697;BME280;47610;52.252;20.922;2023-08-24T22:27:11;100182.08;;;20.99;100.00
61697;BME280;47610;52.252;20.922;2023-08-24T22:32:12;100175.04;;;20.95;100.00
61697;BME280;47610;52.252;20.922;2023-08-24T22:37:14;100170.69;;;20.93;100.00
61697;BME280;47610;52.252;20.922;2023-08-24T22:42:16;100169.17;;;20.96;100.00
61697;BME280;47610;52.252;20.922;2023-08-24T22:47:17;100170.80;;;20.99;100.00
61697;BME280;47610;52.252;20.922;2023-08-24T22:52:19;100169.34;;;20.98;100.00
61697;BME280;47610;52.252;20.922;2023-08-24T22:57:21;100161.83;;;20.96;100.00
61697;BME280;47610;52.252;20.922;2023-08-24T23:02:23;100159.70;;;20.84;100.00
61697;BME280;47610;52.252;20.922;2023-08-24T23:07:25;100146.44;;;20.67;100.00
61697;BME280;47610;52.252;20.922;2023-08-24T23:12:26;100140.48;;;20.56;100.00
61697;BME280;47610;52.252;20.922;2023-08-24T23:17:28;100126.86;;;20.49;100.00
61697;BME280;47610;52.252;20.922;2023-08-24T23:22:29;100118.92;;;20.40;100.00
61697;BME280;47610;52.252;20.922;2023-08-24T23:27:31;100109.23;;;20.35;100.00
61697;BME280;47610;52.252;20.922;2023-08-24T23:32:33;100112.13;;;20.31;100.00
61697;BME280;47610;52.252;20.922;2023-08-24T23:37:35;100111.58;;;20.31;100.00
61697;BME280;47610;52.252;20.922;2023-08-24T23:42:38;100112.75;;;20.28;100.00
61697;BME280;47610;52.252;20.922;2023-08-24T23:47:40;100102.09;;;20.27;100.00
61697;BME280;47610;52.252;20.922;2023-08-24T23:52:41;100096.73;;;20.22;100.00
61697;BME280;47610;52.252;20.922;2023-08-24T23:57:43;100098.28;;;20.11;100.00
